sensor_id;sensor_type;location;lat;lon;timestamp;temperature;humidity
20985;DHT22;10651;47.552;7.606;2022-10-30T05:04:57;14.90;99.90
20985;DHT22;10651;47.552;7.606;2022-10-30T05:07:23;14.90;99.90
20985;DHT22;10651;47.552;7.606;2022-10-30T05:09:49;14.80;99.90
20985;DHT22;10651;47.552;7.606;2022-10-30T05:12:14;14.90;99.90
20985;DHT22;10651;47.552;7.606;2022-10-30T05:14:41;14.80;99.90
20985;DHT22;10651;47.552;7.606;2022-10-30T05:17:07;14.80;99.90
20985;DHT22;10651;47.552;7.606;2022-10-30T05:19:33;14.80;99.90
20985;DHT22;10651;47.552;7.606;2022-10-30T05:21:58;14.80;99.90
20985;DHT22;10651;47.552;7.606;2022-10-30T05:24:24;14.80;99.90
20985;DHT22;10651;47.552;7.606;2022-10-30T05:26:50;14.80;99.90
20985;DHT22;10651;47.552;7.606;2022-10-30T05:29:15;14.80;99.90
20985;DHT22;10651;47.552;7.606;2022-10-30T05:31:41;14.80;99.90
20985;DHT22;10651;47.552;7.606;2022-10-30T05:34:06;14.80;99.90
20985;DHT22;10651;47.552;7.606;2022-10-30T05:36:32;14.80;99.90
20985;DHT22;10651;47.552;7.606;2022-10-30T05:38:58;14.80;99.90
20985;DHT22;10651;47.552;7.606;2022-10-30T05:41:23;14.70;99.90
20985;DHT22;10651;47.552;7.606;2022-10-30T05:43:49;14.70;99.90
20985;DHT22;10651;47.552;7.606;2022-10-30T05:46:15;14.70;99.90
20985;DHT22;10651;47.552;7.606;2022-10-30T05:48:40;14.70;99.90
20985;DHT22;10651;47.552;7.606;2022-10-30T05:51:06;14.70;99.90
20985;DHT22;10651;47.552;7.606;2022-10-30T05:53:33;14.70;99.90
20985;DHT22;10651;47.552;7.606;2022-10-30T05:55:58;14.80;99.90
20985;DHT22;10651;47.552;7.606;2022-10-30T05:58:25;14.80;99.90
20985;DHT22;10651;47.552;7.606;2022-10-30T06:00:51;14.70;99.90
20985;DHT22;10651;47.552;7.606;2022-10-30T06:03:16;14.70;99.90
20985;DHT22;10651;47.552;7.606;2022-10-30T06:05:44;14.70;99.90
20985;DHT22;10651;47.552;7.606;2022-10-30T06:08:10;14.70;99.90
20985;DHT22;10651;47.552;7.606;2022-10-30T06:10:36;14.70;99.90
20985;DHT22;10651;47.552;7.606;2022-10-30T06:13:05;14.80;99.90
20985;DHT22;10651;47.552;7.606;2022-10-30T06:15:31;14.80;99.90
20985;DHT22;10651;47.552;7.606;2022-10-30T06:17:58;14.80;99.90
20985;DHT22;10651;47.552;7.606;2022-10-30T06:20:26;14.80;99.90
20985;DHT22;10651;47.552;7.606;2022-10-30T06:22:58;14.80;99.90
20985;DHT22;10651;47.552;7.606;2022-10-30T06:25:24;14.70;99.90
20985;DHT22;10651;47.552;7.606;2022-10-30T06:27:50;14.70;99.90
20985;DHT22;10651;47.552;7.606;2022-10-30T06:30:16;14.70;99.90
20985;DHT22;10651;47.552;7.606;2022-10-30T06:32:42;14.50;99.90
20985;DHT22;10651;47.552;7.606;2022-10-30T06:35:08;14.60;99.90
20985;DHT22;10651;47.552;7.606;2022-10-30T06:37:34;14.60;99.90
20985;DHT22;10651;47.552;7.606;2022-10-30T06:40:00;14.60;99.90
20985;DHT22;10651;47.552;7.606;2022-10-30T06:42:26;14.70;99.90
20985;DHT22;10651;47.552;7.606;2022-10-30T06:44:51;14.70;99.90
20985;DHT22;10651;47.552;7.606;2022-10-30T06:47:17;14.70;99.90
20985;DHT22;10651;47.552;7.606;2022-10-30T06:49:43;14.70;99.90
20985;DHT22;10651;47.552;7.606;2022-10-30T06:52:08;14.80;99.90
20985;DHT22;10651;47.552;7.606;2022-10-30T06:54:34;14.80;99.90
20985;DHT22;10651;47.552;7.606;2022-10-30T06:57:00;14.80;99.90
20985;DHT22;10651;47.552;7.606;2022-10-30T06:59:26;14.80;99.90
20985;DHT22;10651;47.552;7.606;2022-10-30T07:01:52;14.90;99.90
20985;DHT22;10651;47.552;7.606;2022-10-30T07:04:17;14.90;99.90
20985;DHT22;10651;47.552;7.606;2022-10-30T07:06:43;15.00;99.90
20985;DHT22;10651;47.552;7.606;2022-10-30T07:09:09;15.00;99.90
20985;DHT22;10651;47.552;7.606;2022-10-30T07:11:35;15.10;99.90
20985;DHT22;10651;47.552;7.606;2022-10-30T07:14:01;15.10;99.90
20985;DHT22;10651;47.552;7.606;2022-10-30T07:16:27;15.10;99.90
20985;DHT22;10651;47.552;7.606;2022-10-30T07:18:52;15.20;99.90
20985;DHT22;10651;47.552;7.606;2022-10-30T07:21:18;15.30;99.90
20985;DHT22;10651;47.552;7.606;2022-10-30T07:23:44;15.40;99.90
20985;DHT22;10651;47.552;7.606;2022-10-30T07:26:09;15.50;99.90
20985;DHT22;10651;47.552;7.606;2022-10-30T07:28:35;15.50;99.90
20985;DHT22;10651;47.552;7.606;2022-10-30T07:31:01;15.50;99.90
20985;DHT22;10651;47.552;7.606;2022-10-30T07:33:26;15.60;99.90
20985;DHT22;10651;47.552;7.606;2022-10-30T07:35:52;15.80;99.90
20985;DHT22;10651;47.552;7.606;2022-10-30T07:38:18;15.90;99.90
20985;DHT22;10651;47.552;7.606;2022-10-30T07:40:43;16.00;99.90
20985;DHT22;10651;47.552;7.606;2022-10-30T07:43:15;16.00;99.90
20985;DHT22;10651;47.552;7.606;2022-10-30T07:45:44;16.00;99.90
20985;DHT22;10651;47.552;7.606;2022-10-30T07:48:10;16.00;99.90
20985;DHT22;10651;47.552;7.606;2022-10-30T07:50:35;16.00;99.90
20985;DHT22;10651;47.552;7.606;2022-10-30T07:53:01;16.10;99.90
20985;DHT22;10651;47.552;7.606;2022-10-30T07:55:27;16.20;99.90
20985;DHT22;10651;47.552;7.606;2022-10-30T07:57:52;16.30;99.90
20985;DHT22;10651;47.552;7.606;2022-10-30T08:00:18;16.40;99.90
20985;DHT22;10651;47.552;7.606;2022-10-30T08:02:48;16.60;99.90
20985;DHT22;10651;47.552;7.606;2022-10-30T08:05:15;17.00;99.90
20985;DHT22;10651;47.552;7.606;2022-10-30T08:07:40;17.20;99.90
20985;DHT22;10651;47.552;7.606;2022-10-30T08:10:06;17.40;99.90
20985;DHT22;10651;47.552;7.606;2022-10-30T08:12:33;17.60;99.90
20985;DHT22;10651;47.552;7.606;2022-10-30T08:14:59;17.70;99.90
20985;DHT22;10651;47.552;7.606;2022-10-30T08:17:25;18.00;99.90
20985;DHT22;10651;47.552;7.606;2022-10-30T08:19:51;18.10;99.90
20985;DHT22;10651;47.552;7.606;2022-10-30T08:22:17;18.30;99.90
20985;DHT22;10651;47.552;7.606;2022-10-30T08:24:42;18.50;99.90
20985;DHT22;10651;47.552;7.606;2022-10-30T08:27:09;18.80;99.90
20985;DHT22;10651;47.552;7.606;2022-10-30T08:29:35;19.10;99.90
20985;DHT22;10651;47.552;7.606;2022-10-30T08:32:01;19.40;99.90
20985;DHT22;10651;47.552;7.606;2022-10-30T08:34:26;19.40;99.90
20985;DHT22;10651;47.552;7.606;2022-10-30T08:36:52;19.40;99.90
20985;DHT22;10651;47.552;7.606;2022-10-30T08:39:18;19.50;99.90
20985;DHT22;10651;47.552;7.606;2022-10-30T08:41:44;19.60;99.90
20985;DHT22;10651;47.552;7.606;2022-10-30T08:44:10;20.00;99.90
20985;DHT22;10651;47.552;7.606;2022-10-30T08:46:36;20.20;99.90
20985;DHT22;10651;47.552;7.606;2022-10-30T08:49:01;20.30;99.90
20985;DHT22;10651;47.552;7.606;2022-10-30T08:51:27;20.30;99.90
20985;DHT22;10651;47.552;7.606;2022-10-30T08:53:56;20.30;99.90
20985;DHT22;10651;47.552;7.606;2022-10-30T08:56:21;20.10;99.90
20985;DHT22;10651;47.552;7.606;2022-10-30T08:58:48;20.00;99.90
20985;DHT22;10651;47.552;7.606;2022-10-30T09:01:14;19.90;99.90
20985;DHT22;10651;47.552;7.606;2022-10-30T09:03:40;20.00;99.90
20985;DHT22;10651;47.552;7.606;2022-10-30T09:06:07;20.30;99.90
20985;DHT22;10651;47.552;7.606;2022-10-30T09:08:33;20.50;99.90
20985;DHT22;10651;47.552;7.606;2022-10-30T09:10:58;20.60;99.90
20985;DHT22;10651;47.552;7.606;2022-10-30T09:13:25;20.70;99.90
20985;DHT22;10651;47.552;7.606;2022-10-30T09:18:17;21.10;99.90
20985;DHT22;10651;47.552;7.606;2022-10-30T09:20:43;21.20;99.90
20985;DHT22;10651;47.552;7.606;2022-10-30T09:23:09;22.30;99.90
20985;DHT22;10651;47.552;7.606;2022-10-30T09:25:34;24.20;99.90
20985;DHT22;10651;47.552;7.606;2022-10-30T09:28:00;26.00;99.90
20985;DHT22;10651;47.552;7.606;2022-10-30T09:30:26;26.30;99.90
20985;DHT22;10651;47.552;7.606;2022-10-30T09:32:59;25.50;99.90
20985;DHT22;10651;47.552;7.606;2022-10-30T09:35:26;25.40;99.90
20985;DHT22;10651;47.552;7.606;2022-10-30T09:37:52;26.20;99.90
20985;DHT22;10651;47.552;7.606;2022-10-30T09:42:47;27.50;99.90
20985;DHT22;10651;47.552;7.606;2022-10-30T09:54:43;28.90;99.90
20985;DHT22;10651;47.552;7.606;2022-10-30T09:57:13;29.10;99.90
20985;DHT22;10651;47.552;7.606;2022-10-30T10:02:54;29.40;99.90
20985;DHT22;10651;47.552;7.606;2022-10-30T10:05:28;28.60;99.90
20985;DHT22;10651;47.552;7.606;2022-10-30T10:08:00;28.90;99.90
20985;DHT22;10651;47.552;7.606;2022-10-30T10:10:42;29.80;99.90
20985;DHT22;10651;47.552;7.606;2022-10-30T10:15:47;29.40;99.90
20985;DHT22;10651;47.552;7.606;2022-10-30T10:18:32;29.80;99.90
20985;DHT22;10651;47.552;7.606;2022-10-30T10:21:08;31.10;99.90
20985;DHT22;10651;47.552;7.606;2022-10-30T10:23:47;31.20;99.90
20985;DHT22;10651;47.552;7.606;2022-10-30T10:39:23;28.20;99.90
20985;DHT22;10651;47.552;7.606;2022-10-30T10:55:27;26.90;99.90
20985;DHT22;10651;47.552;7.606;2022-10-30T10:58:00;26.90;99.90
20985;DHT22;10651;47.552;7.606;2022-10-30T11:00:29;27.60;99.90
20985;DHT22;10651;47.552;7.606;2022-10-30T11:03:02;27.90;99.90
20985;DHT22;10651;47.552;7.606;2022-10-30T11:05:37;28.10;99.90
20985;DHT22;10651;47.552;7.606;2022-10-30T11:10:36;28.20;99.90
20985;DHT22;10651;47.552;7.606;2022-10-30T11:13:02;28.10;99.90
20985;DHT22;10651;47.552;7.606;2022-10-30T11:15:53;27.40;99.90
20985;DHT22;10651;47.552;7.606;2022-10-30T11:18:20;27.10;99.90
20985;DHT22;10651;47.552;7.606;2022-10-30T11:24:02;26.40;99.90
20985;DHT22;10651;47.552;7.606;2022-10-30T11:26:31;26.70;99.90
20985;DHT22;10651;47.552;7.606;2022-10-30T11:31:37;27.20;99.90
20985;DHT22;10651;47.552;7.606;2022-10-30T11:34:32;27.30;99.90
20985;DHT22;10651;47.552;7.606;2022-10-30T11:36:58;28.00;99.90
20985;DHT22;10651;47.552;7.606;2022-10-30T11:39:35;28.70;99.90
20985;DHT22;10651;47.552;7.606;2022-10-30T11:42:04;29.00;99.90
20985;DHT22;10651;47.552;7.606;2022-10-30T11:44:34;29.50;99.90
20985;DHT22;10651;47.552;7.606;2022-10-30T11:47:02;30.00;99.90
20985;DHT22;10651;47.552;7.606;2022-10-30T11:52:21;30.00;99.90
20985;DHT22;10651;47.552;7.606;2022-10-30T11:54:52;29.50;99.90
20985;DHT22;10651;47.552;7.606;2022-10-30T11:57:51;28.90;99.90
20985;DHT22;10651;47.552;7.606;2022-10-30T12:00:21;28.90;99.90
20985;DHT22;10651;47.552;7.606;2022-10-30T12:02:50;29.30;99.90
20985;DHT22;10651;47.552;7.606;2022-10-30T12:13:23;30.20;99.90
20985;DHT22;10651;47.552;7.606;2022-10-30T12:16:13;30.30;99.90
20985;DHT22;10651;47.552;7.606;2022-10-30T12:18:40;30.60;99.90
20985;DHT22;10651;47.552;7.606;2022-10-30T12:21:06;30.60;99.90
20985;DHT22;10651;47.552;7.606;2022-10-30T12:23:33;30.60;99.90
20985;DHT22;10651;47.552;7.606;2022-10-30T12:26:08;31.10;99.90
20985;DHT22;10651;47.552;7.606;2022-10-30T12:28:34;31.70;99.90
20985;DHT22;10651;47.552;7.606;2022-10-30T12:31:13;31.40;99.30
20985;DHT22;10651;47.552;7.606;2022-10-30T12:33:48;31.80;99.70
20985;DHT22;10651;47.552;7.606;2022-10-30T12:36:31;31.90;99.10
20985;DHT22;10651;47.552;7.606;2022-10-30T12:39:12;31.20;98.40
20985;DHT22;10651;47.552;7.606;2022-10-30T12:46:52;30.60;99.20
20985;DHT22;10651;47.552;7.606;2022-10-30T12:52:18;31.50;99.00
20985;DHT22;10651;47.552;7.606;2022-10-30T13:04:17;33.50;97.60
20985;DHT22;10651;47.552;7.606;2022-10-30T13:07:12;35.20;95.10
20985;DHT22;10651;47.552;7.606;2022-10-30T13:12:35;37.60;90.90
20985;DHT22;10651;47.552;7.606;2022-10-30T13:15:05;38.50;89.40
20985;DHT22;10651;47.552;7.606;2022-10-30T13:17:34;39.60;86.40
20985;DHT22;10651;47.552;7.606;2022-10-30T13:20:00;39.40;82.50
20985;DHT22;10651;47.552;7.606;2022-10-30T13:28:32;38.60;82.50
20985;DHT22;10651;47.552;7.606;2022-10-30T13:31:36;39.50;79.80
20985;DHT22;10651;47.552;7.606;2022-10-30T13:36:44;40.20;76.60
20985;DHT22;10651;47.552;7.606;2022-10-30T13:39:22;40.90;75.50
20985;DHT22;10651;47.552;7.606;2022-10-30T13:52:20;40.80;71.60
20985;DHT22;10651;47.552;7.606;2022-10-30T13:55:16;41.00;69.80
20985;DHT22;10651;47.552;7.606;2022-10-30T14:03:47;39.00;70.80
20985;DHT22;10651;47.552;7.606;2022-10-30T14:12:41;38.30;70.50
20985;DHT22;10651;47.552;7.606;2022-10-30T14:14:47;37.60;71.10
20985;DHT22;10651;47.552;7.606;2022-10-30T14:17:14;36.50;72.80
20985;DHT22;10651;47.552;7.606;2022-10-30T14:22:32;36.60;73.90
20985;DHT22;10651;47.552;7.606;2022-10-30T14:24:59;36.90;73.80
20985;DHT22;10651;47.552;7.606;2022-10-30T14:27:30;36.80;73.70
20985;DHT22;10651;47.552;7.606;2022-10-30T14:29:56;36.70;74.00
20985;DHT22;10651;47.552;7.606;2022-10-30T14:43:28;35.30;76.30
20985;DHT22;10651;47.552;7.606;2022-10-30T14:45:59;34.20;77.10
20985;DHT22;10651;47.552;7.606;2022-10-30T14:48:44;32.50;79.50
20985;DHT22;10651;47.552;7.606;2022-10-30T14:51:18;31.30;82.70
20985;DHT22;10651;47.552;7.606;2022-10-30T14:56:47;29.90;87.50
20985;DHT22;10651;47.552;7.606;2022-10-30T15:04:43;28.30;92.40
20985;DHT22;10651;47.552;7.606;2022-10-30T15:07:26;27.80;92.50
20985;DHT22;10651;47.552;7.606;2022-10-30T15:12:51;27.00;94.40
20985;DHT22;10651;47.552;7.606;2022-10-30T15:15:23;26.80;95.40
20985;DHT22;10651;47.552;7.606;2022-10-30T15:18:15;26.70;95.90
20985;DHT22;10651;47.552;7.606;2022-10-30T15:20:37;26.50;96.50
20985;DHT22;10651;47.552;7.606;2022-10-30T15:23:11;26.20;98.10
20985;DHT22;10651;47.552;7.606;2022-10-30T15:25:53;26.00;98.20
20985;DHT22;10651;47.552;7.606;2022-10-30T15:28:21;25.60;99.80
20985;DHT22;10651;47.552;7.606;2022-10-30T15:30:59;25.30;99.90
20985;DHT22;10651;47.552;7.606;2022-10-30T15:33:26;25.00;99.90
20985;DHT22;10651;47.552;7.606;2022-10-30T15:35:52;24.80;99.90
20985;DHT22;10651;47.552;7.606;2022-10-30T15:38:17;24.60;99.90
20985;DHT22;10651;47.552;7.606;2022-10-30T15:40:43;24.40;99.90
20985;DHT22;10651;47.552;7.606;2022-10-30T15:43:18;24.20;99.90
20985;DHT22;10651;47.552;7.606;2022-10-30T15:45:45;24.00;99.90
20985;DHT22;10651;47.552;7.606;2022-10-30T15:48:25;23.80;99.90
20985;DHT22;10651;47.552;7.606;2022-10-30T15:51:16;23.70;99.90
20985;DHT22;10651;47.552;7.606;2022-10-30T15:53:52;23.50;99.90
20985;DHT22;10651;47.552;7.606;2022-10-30T15:56:31;23.40;99.90
20985;DHT22;10651;47.552;7.606;2022-10-30T15:59:03;23.20;99.90
20985;DHT22;10651;47.552;7.606;2022-10-30T16:01:43;23.10;99.90
20985;DHT22;10651;47.552;7.606;2022-10-30T16:04:24;23.00;99.90
20985;DHT22;10651;47.552;7.606;2022-10-30T16:06:55;22.80;99.90
20985;DHT22;10651;47.552;7.606;2022-10-30T16:09:23;22.70;99.90
20985;DHT22;10651;47.552;7.606;2022-10-30T16:11:50;22.50;99.90
20985;DHT22;10651;47.552;7.606;2022-10-30T16:14:21;22.30;99.90
20985;DHT22;10651;47.552;7.606;2022-10-30T16:16:47;22.20;99.90
20985;DHT22;10651;47.552;7.606;2022-10-30T16:19:36;22.10;99.90
20985;DHT22;10651;47.552;7.606;2022-10-30T16:22:11;22.00;99.90
20985;DHT22;10651;47.552;7.606;2022-10-30T16:24:38;21.90;99.90
20985;DHT22;10651;47.552;7.606;2022-10-30T16:27:17;21.90;99.90
20985;DHT22;10651;47.552;7.606;2022-10-30T16:29:45;21.60;99.90
20985;DHT22;10651;47.552;7.606;2022-10-30T16:32:15;21.50;99.90
20985;DHT22;10651;47.552;7.606;2022-10-30T16:34:41;21.40;99.90
20985;DHT22;10651;47.552;7.606;2022-10-30T16:37:34;21.30;99.90
20985;DHT22;10651;47.552;7.606;2022-10-30T16:40:13;21.20;99.90
20985;DHT22;10651;47.552;7.606;2022-10-30T16:42:39;21.10;99.90
20985;DHT22;10651;47.552;7.606;2022-10-30T16:47:46;20.90;99.90
20985;DHT22;10651;47.552;7.606;2022-10-30T16:50:15;20.80;99.90
20985;DHT22;10651;47.552;7.606;2022-10-30T16:52:42;20.70;99.90
20985;DHT22;10651;47.552;7.606;2022-10-30T16:57:40;20.50;99.90
20985;DHT22;10651;47.552;7.606;2022-10-30T17:00:20;20.40;99.90
20985;DHT22;10651;47.552;7.606;2022-10-30T17:02:48;20.30;99.90
20985;DHT22;10651;47.552;7.606;2022-10-30T17:05:32;20.20;99.90
20985;DHT22;10651;47.552;7.606;2022-10-30T17:08:45;20.10;99.90
20985;DHT22;10651;47.552;7.606;2022-10-30T17:11:00;20.00;99.90
20985;DHT22;10651;47.552;7.606;2022-10-30T17:13:36;20.10;99.90
20985;DHT22;10651;47.552;7.606;2022-10-30T17:16:22;20.10;99.90
20985;DHT22;10651;47.552;7.606;2022-10-30T17:18:49;20.00;99.90
20985;DHT22;10651;47.552;7.606;2022-10-30T17:21:27;20.00;99.90
20985;DHT22;10651;47.552;7.606;2022-10-30T17:23:56;19.90;99.90
20985;DHT22;10651;47.552;7.606;2022-10-30T17:26:25;19.90;99.90
20985;DHT22;10651;47.552;7.606;2022-10-30T17:28:51;19.90;99.90
20985;DHT22;10651;47.552;7.606;2022-10-30T17:33:46;19.70;99.90
20985;DHT22;10651;47.552;7.606;2022-10-30T17:36:13;19.70;99.90
20985;DHT22;10651;47.552;7.606;2022-10-30T17:38:38;19.60;99.90
20985;DHT22;10651;47.552;7.606;2022-10-30T17:41:05;19.60;99.90
20985;DHT22;10651;47.552;7.606;2022-10-30T17:43:34;19.60;99.90
20985;DHT22;10651;47.552;7.606;2022-10-30T17:46:11;19.50;99.90
20985;DHT22;10651;47.552;7.606;2022-10-30T17:48:37;19.50;99.90
20985;DHT22;10651;47.552;7.606;2022-10-30T17:51:03;19.40;99.90
20985;DHT22;10651;47.552;7.606;2022-10-30T17:53:28;19.40;99.90
20985;DHT22;10651;47.552;7.606;2022-10-30T17:56:02;19.30;99.90
20985;DHT22;10651;47.552;7.606;2022-10-30T17:58:29;19.30;99.90
20985;DHT22;10651;47.552;7.606;2022-10-30T18:00:56;19.10;99.90
20985;DHT22;10651;47.552;7.606;2022-10-30T18:03:22;19.00;99.90
20985;DHT22;10651;47.552;7.606;2022-10-30T18:05:47;19.10;99.90
20985;DHT22;10651;47.552;7.606;2022-10-30T18:08:13;19.10;99.90
20985;DHT22;10651;47.552;7.606;2022-10-30T18:10:39;19.00;99.90
20985;DHT22;10651;47.552;7.606;2022-10-30T18:13:05;19.00;99.90
20985;DHT22;10651;47.552;7.606;2022-10-30T18:17:57;18.90;99.90
20985;DHT22;10651;47.552;7.606;2022-10-30T18:20:23;18.90;99.90
20985;DHT22;10651;47.552;7.606;2022-10-30T18:25:23;18.70;99.90
20985;DHT22;10651;47.552;7.606;2022-10-30T18:27:49;18.60;99.90
20985;DHT22;10651;47.552;7.606;2022-10-30T18:30:16;18.70;99.90
20985;DHT22;10651;47.552;7.606;2022-10-30T18:32:42;18.60;99.90
20985;DHT22;10651;47.552;7.606;2022-10-30T18:37:41;18.60;99.90
20985;DHT22;10651;47.552;7.606;2022-10-30T18:40:07;18.60;99.90
20985;DHT22;10651;47.552;7.606;2022-10-30T18:42:33;18.40;99.90
20985;DHT22;10651;47.552;7.606;2022-10-30T18:44:59;18.50;99.90
20985;DHT22;10651;47.552;7.606;2022-10-30T18:47:24;18.40;99.90
20985;DHT22;10651;47.552;7.606;2022-10-30T18:49:50;18.40;99.90
20985;DHT22;10651;47.552;7.606;2022-10-30T18:52:16;18.30;99.90
20985;DHT22;10651;47.552;7.606;2022-10-30T18:54:41;18.30;99.90
20985;DHT22;10651;47.552;7.606;2022-10-30T18:57:07;18.30;99.90
20985;DHT22;10651;47.552;7.606;2022-10-30T18:59:33;18.20;99.90
20985;DHT22;10651;47.552;7.606;2022-10-30T19:01:59;18.10;99.90
20985;DHT22;10651;47.552;7.606;2022-10-30T19:04:25;18.10;99.90
20985;DHT22;10651;47.552;7.606;2022-10-30T19:06:50;18.00;99.90
20985;DHT22;10651;47.552;7.606;2022-10-30T19:09:16;17.90;99.90
20985;DHT22;10651;47.552;7.606;2022-10-30T19:11:42;17.90;99.90
20985;DHT22;10651;47.552;7.606;2022-10-30T19:14:12;18.00;99.90
20985;DHT22;10651;47.552;7.606;2022-10-30T19:16:38;18.00;99.90
20985;DHT22;10651;47.552;7.606;2022-10-30T19:19:04;17.90;99.90
20985;DHT22;10651;47.552;7.606;2022-10-30T19:21:30;17.80;99.90
20985;DHT22;10651;47.552;7.606;2022-10-30T19:24:00;17.80;99.90
20985;DHT22;10651;47.552;7.606;2022-10-30T19:26:26;17.80;99.90
20985;DHT22;10651;47.552;7.606;2022-10-30T19:28:52;17.70;99.90
20985;DHT22;10651;47.552;7.606;2022-10-30T19:31:18;17.70;99.90
20985;DHT22;10651;47.552;7.606;2022-10-30T19:33:45;17.60;99.90
20985;DHT22;10651;47.552;7.606;2022-10-30T19:36:27;17.60;99.90
20985;DHT22;10651;47.552;7.606;2022-10-30T19:38:53;17.60;99.90
20985;DHT22;10651;47.552;7.606;2022-10-30T19:41:18;17.50;99.90
20985;DHT22;10651;47.552;7.606;2022-10-30T19:43:44;17.50;99.90
20985;DHT22;10651;47.552;7.606;2022-10-30T19:46:11;17.50;99.90
20985;DHT22;10651;47.552;7.606;2022-10-30T19:48:38;17.40;99.90
20985;DHT22;10651;47.552;7.606;2022-10-30T19:51:04;17.30;99.90
20985;DHT22;10651;47.552;7.606;2022-10-30T19:53:33;17.30;99.90
20985;DHT22;10651;47.552;7.606;2022-10-30T19:55:59;17.30;99.90
20985;DHT22;10651;47.552;7.606;2022-10-30T19:58:25;17.30;99.90
20985;DHT22;10651;47.552;7.606;2022-10-30T20:00:50;17.20;99.90
20985;DHT22;10651;47.552;7.606;2022-10-30T20:03:18;17.20;99.90
20985;DHT22;10651;47.552;7.606;2022-10-30T20:05:48;17.20;99.90
20985;DHT22;10651;47.552;7.606;2022-10-30T20:08:20;17.20;99.90
20985;DHT22;10651;47.552;7.606;2022-10-30T20:10:59;17.10;99.90
20985;DHT22;10651;47.552;7.606;2022-10-30T20:13:26;17.10;99.90
20985;DHT22;10651;47.552;7.606;2022-10-30T20:15:53;17.10;99.90
20985;DHT22;10651;47.552;7.606;2022-10-30T20:18:22;17.00;99.90
20985;DHT22;10651;47.552;7.606;2022-10-30T20:20:53;17.20;99.90
20985;DHT22;10651;47.552;7.606;2022-10-30T20:23:20;17.00;99.90
20985;DHT22;10651;47.552;7.606;2022-10-30T20:25:47;16.90;99.90
20985;DHT22;10651;47.552;7.606;2022-10-30T20:33:12;16.80;99.90
20985;DHT22;10651;47.552;7.606;2022-10-30T20:35:38;16.80;99.90
20985;DHT22;10651;47.552;7.606;2022-10-30T20:38:05;16.80;99.90
20985;DHT22;10651;47.552;7.606;2022-10-30T20:40:31;16.70;99.90
20985;DHT22;10651;47.552;7.606;2022-10-30T20:42:58;16.70;99.90
20985;DHT22;10651;47.552;7.606;2022-10-30T20:45:26;16.70;99.90
20985;DHT22;10651;47.552;7.606;2022-10-30T20:47:52;16.70;99.90
20985;DHT22;10651;47.552;7.606;2022-10-30T20:50:19;16.60;99.90
20985;DHT22;10651;47.552;7.606;2022-10-30T20:52:46;16.60;99.90
20985;DHT22;10651;47.552;7.606;2022-10-30T20:55:12;16.50;99.90
20985;DHT22;10651;47.552;7.606;2022-10-30T20:57:38;16.50;99.90
20985;DHT22;10651;47.552;7.606;2022-10-30T21:00:06;16.40;99.90
20985;DHT22;10651;47.552;7.606;2022-10-30T21:02:32;16.40;99.90
20985;DHT22;10651;47.552;7.606;2022-10-30T21:04:58;16.40;99.90
20985;DHT22;10651;47.552;7.606;2022-10-30T21:07:25;16.40;99.90
20985;DHT22;10651;47.552;7.606;2022-10-30T21:09:51;16.30;99.90
20985;DHT22;10651;47.552;7.606;2022-10-30T21:12:17;16.30;99.90
20985;DHT22;10651;47.552;7.606;2022-10-30T21:14:43;16.30;99.90
20985;DHT22;10651;47.552;7.606;2022-10-30T21:17:09;16.30;99.90
20985;DHT22;10651;47.552;7.606;2022-10-30T21:19:34;16.30;99.90
20985;DHT22;10651;47.552;7.606;2022-10-30T21:22:00;16.30;99.90
20985;DHT22;10651;47.552;7.606;2022-10-30T21:24:26;16.30;99.90
20985;DHT22;10651;47.552;7.606;2022-10-30T21:26:52;16.20;99.90
20985;DHT22;10651;47.552;7.606;2022-10-30T21:29:17;16.20;99.90
20985;DHT22;10651;47.552;7.606;2022-10-30T21:31:43;16.20;99.90
20985;DHT22;10651;47.552;7.606;2022-10-30T21:34:08;16.10;99.90
20985;DHT22;10651;47.552;7.606;2022-10-30T21:36:34;16.10;99.90
20985;DHT22;10651;47.552;7.606;2022-10-30T21:39:00;16.10;99.90
20985;DHT22;10651;47.552;7.606;2022-10-30T21:41:26;16.10;99.90
20985;DHT22;10651;47.552;7.606;2022-10-30T21:43:53;16.00;99.90
20985;DHT22;10651;47.552;7.606;2022-10-30T21:46:20;16.00;99.90
20985;DHT22;10651;47.552;7.606;2022-10-30T21:48:46;16.00;99.90
20985;DHT22;10651;47.552;7.606;2022-10-30T21:51:24;15.90;99.90
20985;DHT22;10651;47.552;7.606;2022-10-30T21:53:51;15.90;99.90
20985;DHT22;10651;47.552;7.606;2022-10-30T21:56:20;15.90;99.90
20985;DHT22;10651;47.552;7.606;2022-10-30T21:58:46;15.80;99.90
20985;DHT22;10651;47.552;7.606;2022-10-30T22:01:20;15.80;99.90
20985;DHT22;10651;47.552;7.606;2022-10-30T22:03:46;15.80;99.90
20985;DHT22;10651;47.552;7.606;2022-10-30T22:06:14;15.80;99.90
20985;DHT22;10651;47.552;7.606;2022-10-30T22:08:43;15.70;99.90
20985;DHT22;10651;47.552;7.606;2022-10-30T22:11:09;15.70;99.90
20985;DHT22;10651;47.552;7.606;2022-10-30T22:13:36;15.70;99.90
20985;DHT22;10651;47.552;7.606;2022-10-30T22:18:29;16.40;99.90
20985;DHT22;10651;47.552;7.606;2022-10-30T22:21:16;15.80;99.90
